createdAt,value
2019-03-28T00:00:41.796Z,12.7
2019-03-28T00:02:43.196Z,12.6
2019-03-28T00:04:44.522Z,12.8
2019-03-28T00:06:45.794Z,13.1
2019-03-28T00:08:47.175Z,12.8
2019-03-28T00:10:48.557Z,12.8
2019-03-28T00:12:49.942Z,13.8
2019-03-28T00:14:51.312Z,13.4
2019-03-28T00:16:52.632Z,14.2
2019-03-28T00:18:54.049Z,13.6
2019-03-28T00:20:55.379Z,13.6
2019-03-28T00:22:56.801Z,13.2
2019-03-28T00:24:58.091Z,13.7
2019-03-28T00:26:59.507Z,13.8
2019-03-28T00:31:02.294Z,12.1
2019-03-28T00:33:03.629Z,14
2019-03-28T00:35:04.955Z,14.3
2019-03-28T00:37:08.178Z,14.3
2019-03-28T00:39:10.162Z,14.5
2019-03-28T00:41:11.501Z,14.7
2019-03-28T00:43:12.897Z,15.1
2019-03-28T00:45:14.338Z,14.3
2019-03-28T00:47:15.743Z,14.2
2019-03-28T00:49:17.162Z,14
2019-03-28T00:51:18.587Z,12.7
2019-03-28T00:53:20.028Z,14.8
2019-03-28T00:55:21.351Z,15.8
2019-03-28T00:57:22.779Z,16.1
2019-03-28T00:59:24.478Z,16.1
2019-03-28T01:01:25.822Z,15.9
2019-03-28T01:03:27.150Z,16.1
2019-03-28T01:05:28.396Z,15.9
2019-03-28T01:07:29.737Z,15.1
2019-03-28T01:09:31.562Z,13
2019-03-28T01:11:32.952Z,14.7
2019-03-28T01:13:34.390Z,15.3
2019-03-28T01:15:35.704Z,15.4
2019-03-28T01:17:36.946Z,13.7
2019-03-28T01:19:38.377Z,12.5
2019-03-28T01:21:39.799Z,15.7
2019-03-28T01:23:41.222Z,15.7
2019-03-28T01:25:42.676Z,12.5
2019-03-28T01:27:44.078Z,15.9
2019-03-28T01:29:45.518Z,12.7
2019-03-28T01:31:46.928Z,15.6
2019-03-28T01:33:48.254Z,15.8
2019-03-28T01:35:49.591Z,13.8
2019-03-28T01:37:51.007Z,14.6
2019-03-28T01:39:52.440Z,15
2019-03-28T01:41:53.855Z,12.9
2019-03-28T01:43:55.281Z,13.3
2019-03-28T01:45:56.700Z,12.9
2019-03-28T01:47:58.125Z,12.9
2019-03-28T01:49:59.459Z,14.2
2019-03-28T01:52:00.876Z,13.4
2019-03-28T01:54:02.205Z,14.6
2019-03-28T01:56:03.656Z,12.6
2019-03-28T01:58:05.459Z,15.3
2019-03-28T02:00:06.886Z,11.8
2019-03-28T02:02:08.286Z,14.6
2019-03-28T02:04:09.633Z,13.5
2019-03-28T02:06:11.045Z,14.8
2019-03-28T02:08:12.463Z,14.9
2019-03-28T02:10:13.859Z,14.3
2019-03-28T02:12:15.262Z,12.5
2019-03-28T02:14:16.598Z,14.3
2019-03-28T02:16:18.023Z,15.2
2019-03-28T02:18:19.439Z,16.2
2019-03-28T02:20:20.860Z,15.9
2019-03-28T02:22:22.107Z,13.3
2019-03-28T02:24:23.525Z,14.2
2019-03-28T02:26:24.857Z,15.2
2019-03-28T02:28:26.270Z,14.8
2019-03-28T02:30:27.670Z,14.6
2019-03-28T02:32:29.028Z,13.8
2019-03-28T02:34:30.399Z,12.8
2019-03-28T02:36:31.830Z,13.9
2019-03-28T02:38:33.240Z,13.7
2019-03-28T02:40:34.668Z,13.4
2019-03-28T02:42:36.076Z,14.2
2019-03-28T02:44:37.865Z,13.9
2019-03-28T02:46:39.259Z,14.4
2019-03-28T02:48:40.672Z,14.2
2019-03-28T02:50:42.097Z,14.1
2019-03-28T02:52:43.477Z,14.4
2019-03-28T02:54:44.894Z,12.8
2019-03-28T02:56:46.317Z,14.2
2019-03-28T02:58:47.582Z,13.9
2019-03-28T03:00:48.946Z,14.5
2019-03-28T03:02:50.387Z,14.4
2019-03-28T03:04:51.781Z,13.7
2019-03-28T03:06:53.181Z,13.9
2019-03-28T03:08:54.525Z,14.8
2019-03-28T03:10:55.898Z,15
2019-03-28T03:12:57.322Z,15.8
2019-03-28T03:14:58.723Z,14.7
2019-03-28T03:17:00.071Z,15.2
2019-03-28T03:19:01.436Z,15.1
2019-03-28T03:21:02.817Z,14.9
2019-03-28T03:23:04.194Z,14.6
2019-03-28T03:25:05.576Z,14.8
2019-03-28T03:27:07.023Z,14.5
2019-03-28T03:29:08.392Z,14.5
2019-03-28T03:31:09.741Z,11.9
2019-03-28T03:33:11.189Z,11.9
2019-03-28T03:35:12.593Z,13.5
2019-03-28T03:37:14.019Z,14.8
2019-03-28T03:39:15.432Z,14.2
2019-03-28T03:41:16.853Z,13.7
2019-03-28T03:43:18.260Z,14.4
2019-03-28T03:45:19.610Z,14.3
2019-03-28T03:47:21.064Z,14.3
2019-03-28T03:49:22.451Z,14.1
2019-03-28T03:51:23.872Z,14.7
2019-03-28T03:53:25.299Z,15.8
2019-03-28T03:55:26.728Z,15.7
2019-03-28T03:57:28.153Z,14.7
2019-03-28T03:59:29.498Z,17.9
2019-03-28T04:01:30.861Z,16.8
2019-03-28T04:03:32.238Z,16.1
2019-03-28T04:05:33.645Z,15.9
2019-03-28T04:07:35.016Z,12
2019-03-28T04:09:36.399Z,14.9
2019-03-28T04:11:37.776Z,13.8
2019-03-28T04:13:39.149Z,14.8
2019-03-28T04:15:40.483Z,15.2
2019-03-28T04:17:41.916Z,14.9
2019-03-28T04:19:43.238Z,12.9
2019-03-28T04:21:44.660Z,13.2
2019-03-28T04:23:45.987Z,13.8
2019-03-28T04:25:47.316Z,13.5
2019-03-28T04:27:48.712Z,13.4
2019-03-28T04:29:50.136Z,14
2019-03-28T04:31:51.514Z,13.5
2019-03-28T04:33:52.918Z,14.4
2019-03-28T04:35:54.290Z,13.2
2019-03-28T04:37:55.719Z,14.4
2019-03-28T04:39:57.119Z,13.6
2019-03-28T04:41:58.461Z,14
2019-03-28T04:43:59.885Z,14.4
2019-03-28T04:46:01.263Z,12.9
2019-03-28T04:48:02.639Z,13.4
2019-03-28T04:50:04.007Z,12
2019-03-28T04:52:05.333Z,11.8
2019-03-28T04:54:10.015Z,12
2019-03-28T04:56:11.297Z,11.8
2019-03-28T04:58:12.693Z,12.8
2019-03-28T05:00:14.056Z,14.8
2019-03-28T05:02:15.385Z,11.5
2019-03-28T05:04:16.721Z,14
2019-03-28T05:06:18.110Z,14.6
2019-03-28T05:08:19.553Z,13.6
2019-03-28T05:10:20.969Z,13.5
2019-03-28T05:12:22.399Z,13.5
2019-03-28T05:14:23.811Z,13.1
2019-03-28T05:16:25.246Z,13.2
2019-03-28T05:18:26.667Z,13.1
2019-03-28T05:20:28.097Z,12.7
2019-03-28T05:22:29.460Z,11
2019-03-28T05:24:30.904Z,12
2019-03-28T05:26:32.319Z,10.8
2019-03-28T05:28:33.735Z,11.4
2019-03-28T05:30:34.999Z,11
2019-03-28T05:32:36.379Z,13.6
2019-03-28T05:34:37.746Z,13
2019-03-28T05:36:39.224Z,10
2019-03-28T05:38:40.562Z,10.4
2019-03-28T05:40:41.921Z,12.2
2019-03-28T05:42:43.331Z,19
2019-03-28T05:44:44.690Z,16.3
2019-03-28T05:46:46.121Z,11.9
2019-03-28T05:48:47.533Z,10.8
2019-03-28T05:50:48.884Z,12.1
2019-03-28T05:52:50.287Z,14.3
2019-03-28T05:54:51.552Z,14.9
2019-03-28T05:56:52.899Z,13.3
2019-03-28T05:58:54.483Z,10.8
2019-03-28T06:00:55.772Z,10.9
2019-03-28T06:02:57.155Z,13.8
2019-03-28T06:04:58.518Z,15.3
2019-03-28T06:06:59.865Z,14.4
2019-03-28T06:09:09.910Z,18.4
2019-03-28T06:11:12.197Z,18.6
2019-03-28T06:13:13.759Z,18.7
2019-03-28T06:15:15.182Z,17.5
2019-03-28T06:17:16.562Z,14.4
2019-03-28T06:19:17.992Z,16.7
2019-03-28T06:21:19.394Z,12.7
2019-03-28T06:23:20.715Z,19.1
2019-03-28T06:25:23.215Z,15.9
2019-03-28T06:27:24.599Z,19.3
2019-03-28T06:29:26.200Z,21.8
2019-03-28T06:31:27.613Z,23.2
2019-03-28T06:33:28.937Z,19.8
2019-03-28T06:35:30.325Z,20.6
2019-03-28T06:37:32.663Z,20
2019-03-28T06:39:36.683Z,17.4
2019-03-28T06:41:38.024Z,15.3
2019-03-28T06:43:42.273Z,17.9
2019-03-28T06:45:43.557Z,22.2
2019-03-28T06:47:44.989Z,23.6
2019-03-28T06:49:46.417Z,24.8
2019-03-28T06:51:47.850Z,25
2019-03-28T06:53:49.268Z,21.4
2019-03-28T06:55:51.578Z,19.9
2019-03-28T06:57:53.032Z,17.1
2019-03-28T06:59:54.454Z,18.1
2019-03-28T07:01:55.827Z,17.2
2019-03-28T07:03:57.113Z,17.2
2019-03-28T07:05:58.522Z,18.2
2019-03-28T07:07:59.869Z,18
2019-03-28T07:10:02.967Z,19.6
2019-03-28T07:12:04.359Z,26.6
2019-03-28T07:14:05.755Z,22.7
2019-03-28T07:16:07.185Z,27.2
2019-03-28T07:18:08.610Z,21
2019-03-28T07:20:10.028Z,25
2019-03-28T07:22:11.466Z,20.1
2019-03-28T07:24:12.890Z,21.9
2019-03-28T07:26:14.312Z,21.9
2019-03-28T07:28:15.660Z,21.9
2019-03-28T07:30:17.086Z,22.9
2019-03-28T07:32:18.516Z,27.7
2019-03-28T07:34:20.050Z,29.5
2019-03-28T07:36:21.490Z,24
2019-03-28T07:38:22.897Z,21.8
2019-03-28T07:40:24.228Z,26.5
2019-03-28T07:42:25.665Z,22.4
2019-03-28T07:44:27.060Z,23.7
2019-03-28T07:46:28.435Z,23.8
2019-03-28T07:48:29.860Z,24.6
2019-03-28T07:50:33.685Z,23.9
2019-03-28T07:52:35.044Z,23.4
2019-03-28T07:54:36.453Z,24.9
2019-03-28T07:56:37.798Z,29.9
2019-03-28T07:58:39.128Z,29.7
2019-03-28T08:00:40.472Z,25
2019-03-28T08:02:41.874Z,24.7
2019-03-28T08:04:43.297Z,24.8
2019-03-28T08:06:50.491Z,31.3
2019-03-28T08:08:52.625Z,31.6
2019-03-28T08:10:54.050Z,26.2
2019-03-28T08:12:55.485Z,31
2019-03-28T08:14:56.913Z,32.3
2019-03-28T08:16:58.249Z,33.1
2019-03-28T08:18:59.683Z,26.2
2019-03-28T08:21:01.205Z,26.8
2019-03-28T08:23:02.633Z,29.8
2019-03-28T08:25:11.077Z,32.3
2019-03-28T08:27:13.357Z,30.6
2019-03-28T08:29:14.808Z,32.7
2019-03-28T08:31:16.206Z,32.7
2019-03-28T08:33:17.569Z,26.7
2019-03-28T08:35:18.940Z,31.7
2019-03-28T08:37:20.287Z,28.7
2019-03-28T08:39:21.714Z,29.2
2019-03-28T08:41:23.094Z,26.6
2019-03-28T08:43:24.475Z,28.8
2019-03-28T08:45:25.852Z,30.2
2019-03-28T08:47:27.191Z,29.1
2019-03-28T08:49:28.644Z,25.1
2019-03-28T08:51:30.048Z,24.1
2019-03-28T08:53:31.488Z,22.3
2019-03-28T08:55:32.938Z,20.5
2019-03-28T08:57:34.319Z,20.6
2019-03-28T08:59:35.750Z,20.6
2019-03-28T09:01:37.353Z,18.8
2019-03-28T09:03:38.789Z,17.7
2019-03-28T09:05:40.105Z,30.7
2019-03-28T09:07:41.530Z,23.4
2019-03-28T09:09:42.978Z,21.2
2019-03-28T09:11:44.407Z,15.7
2019-03-28T09:13:45.758Z,14.9
2019-03-28T09:15:47.182Z,13.3
2019-03-28T09:17:48.625Z,13
2019-03-28T09:19:50.045Z,15.3
2019-03-28T09:21:51.486Z,13.2
2019-03-28T09:23:52.784Z,18.8
2019-03-28T09:25:54.152Z,20.6
2019-03-28T09:27:55.584Z,15.9
2019-03-28T09:29:57.051Z,15.7
2019-03-28T09:31:58.396Z,17.2
2019-03-28T09:33:59.840Z,14.2
2019-03-28T09:36:01.266Z,16.4
2019-03-28T09:38:02.703Z,15
2019-03-28T09:40:04.047Z,19.1
2019-03-28T09:42:05.432Z,14.2
2019-03-28T09:44:06.866Z,15
2019-03-28T09:46:08.219Z,15.3
2019-03-28T09:48:12.139Z,13.9
2019-03-28T09:50:13.583Z,15.3
2019-03-28T09:52:15.028Z,13.3
2019-03-28T09:54:16.457Z,14.7
2019-03-28T09:56:17.796Z,12.6
2019-03-28T09:58:19.148Z,12.9
2019-03-28T10:00:20.566Z,16
2019-03-28T10:02:21.965Z,16.3
2019-03-28T10:04:23.339Z,17.1
2019-03-28T10:06:24.617Z,16.7
2019-03-28T10:08:26.109Z,18.1
2019-03-28T10:10:27.483Z,13.3
2019-03-28T10:12:28.818Z,15
2019-03-28T10:14:30.163Z,14.4
2019-03-28T10:16:31.513Z,17.5
2019-03-28T10:18:32.892Z,16.9
2019-03-28T10:20:34.334Z,16.7
2019-03-28T10:22:35.761Z,16.6
2019-03-28T10:24:37.133Z,16.7
2019-03-28T10:26:39.700Z,16.3
2019-03-28T10:28:41.029Z,15.4
2019-03-28T10:30:42.403Z,13.4
2019-03-28T10:32:43.835Z,14.3
2019-03-28T10:34:45.273Z,14.3
2019-03-28T10:36:46.688Z,13.9
2019-03-28T10:38:48.115Z,15.2
2019-03-28T10:40:49.478Z,14.6
2019-03-28T10:42:50.856Z,15.8
2019-03-28T10:44:52.282Z,12.7
2019-03-28T10:46:53.723Z,14.4
2019-03-28T10:48:55.163Z,12.8
2019-03-28T10:50:56.860Z,11.8
2019-03-28T10:52:58.145Z,12.7
2019-03-28T10:54:59.565Z,11.1
2019-03-28T10:57:18.988Z,12
2019-03-28T10:59:30.021Z,11.5
2019-03-28T11:01:50.342Z,10.4
2019-03-28T11:03:52.086Z,13.6
2019-03-28T11:05:53.375Z,11.6
2019-03-28T11:07:54.777Z,10
2019-03-28T11:09:56.151Z,10.3
2019-03-28T11:11:57.560Z,10.9
2019-03-28T11:13:58.924Z,11.9
2019-03-28T11:16:00.553Z,12.5
2019-03-28T11:18:01.876Z,12
2019-03-28T11:20:03.269Z,16.5
2019-03-28T11:22:04.714Z,16.4
2019-03-28T11:24:06.153Z,16.9
2019-03-28T11:26:07.594Z,16.5
2019-03-28T11:28:09.106Z,15.6
2019-03-28T11:30:10.569Z,16.2
2019-03-28T11:32:12.083Z,16.2
2019-03-28T11:34:14.712Z,14
2019-03-28T11:36:16.200Z,14.7
2019-03-28T11:38:17.607Z,13
2019-03-28T11:40:19.028Z,14.8
2019-03-28T11:42:20.433Z,13.8
2019-03-28T11:44:21.842Z,14.7
2019-03-28T11:46:23.260Z,14.5
2019-03-28T11:48:24.676Z,15.2
2019-03-28T11:50:26.129Z,14.5
2019-03-28T11:52:27.485Z,13.9
2019-03-28T11:54:29.075Z,13.7
2019-03-28T11:56:30.366Z,14.8
2019-03-28T11:58:31.747Z,15.7
2019-03-28T12:00:33.092Z,15.1
2019-03-28T12:02:34.518Z,14.8
2019-03-28T12:04:38.926Z,14.3
2019-03-28T12:06:40.294Z,13.7
2019-03-28T12:08:41.756Z,13.2
2019-03-28T12:10:43.184Z,13.5
2019-03-28T12:12:44.570Z,12.9
2019-03-28T12:14:45.959Z,12.7
2019-03-28T12:16:52.290Z,13.5
2019-03-28T12:19:01.925Z,11.5
2019-03-28T12:21:22.312Z,13.3
2019-03-28T12:23:27.702Z,12.7
2019-03-28T12:25:30.659Z,12.6
2019-03-28T12:27:33.970Z,11.1
2019-03-28T12:29:43.999Z,12
2019-03-28T12:31:45.442Z,11.9
2019-03-28T12:33:46.883Z,9.6
2019-03-28T12:35:48.290Z,12.4
2019-03-28T12:37:49.674Z,12.1
2019-03-28T12:39:51.032Z,10.8
2019-03-28T12:41:53.059Z,11.8
2019-03-28T12:43:54.883Z,9
2019-03-28T12:45:56.216Z,9.9
2019-03-28T12:47:57.653Z,10.9
2019-03-28T12:49:59.082Z,11.5
2019-03-28T12:52:00.528Z,11
2019-03-28T12:54:02.830Z,12.2
2019-03-28T12:56:04.199Z,12.1
2019-03-28T12:58:05.617Z,11.8
2019-03-28T13:00:07.174Z,11.2
2019-03-28T13:02:08.573Z,12.4
2019-03-28T13:04:09.895Z,10.6
2019-03-28T13:06:11.237Z,9.5
2019-03-28T13:08:12.614Z,10.8
2019-03-28T13:10:14.022Z,10.6
2019-03-28T13:12:15.463Z,9
2019-03-28T13:14:16.846Z,12.7
2019-03-28T13:16:18.241Z,10.8
2019-03-28T13:18:19.569Z,11
2019-03-28T13:20:22.547Z,10.3
2019-03-28T13:22:23.930Z,11.5
2019-03-28T13:24:25.203Z,8.6
2019-03-28T13:26:26.585Z,13.8
2019-03-28T13:28:28.930Z,10.1
2019-03-28T13:30:30.336Z,14
2019-03-28T13:32:42.494Z,10.1
2019-03-28T13:34:43.879Z,14
2019-03-28T13:36:45.312Z,15.3
2019-03-28T13:38:46.751Z,16.3
2019-03-28T13:40:48.200Z,17.8
2019-03-28T13:42:53.204Z,16.1
2019-03-28T13:44:54.651Z,16.3
2019-03-28T13:46:56.089Z,17.5
2019-03-28T13:48:57.442Z,17.4
2019-03-28T13:50:58.897Z,18
2019-03-28T13:53:00.319Z,18.7
2019-03-28T13:55:01.781Z,17.5
2019-03-28T13:57:03.210Z,17.8
2019-03-28T13:59:06.019Z,17.2
2019-03-28T14:01:07.427Z,15.3
2019-03-28T14:03:08.774Z,14.5
2019-03-28T14:05:13.316Z,16.9
2019-03-28T14:07:17.643Z,15.4
2019-03-28T14:09:19.062Z,16.1
2019-03-28T14:11:20.408Z,15.4
2019-03-28T14:13:21.898Z,14.3
2019-03-28T14:15:23.286Z,12.2
2019-03-28T14:17:24.685Z,13.1
2019-03-28T14:19:26.030Z,11.4
2019-03-28T14:21:27.427Z,11.9
2019-03-28T14:23:28.813Z,13
2019-03-28T14:25:30.187Z,13.1
2019-03-28T14:27:31.537Z,10.9
2019-03-28T14:29:32.964Z,12
2019-03-28T14:31:34.339Z,12.9
2019-03-28T14:33:36.974Z,11.8
2019-03-28T14:35:38.449Z,11.1
2019-03-28T14:37:40.951Z,12.2
2019-03-28T14:39:42.408Z,11.2
2019-03-28T14:41:46.619Z,10.3
2019-03-28T14:43:48.119Z,9.4
2019-03-28T14:45:49.558Z,10.8
2019-03-28T14:47:50.994Z,10.4
2019-03-28T14:49:52.585Z,10.4
2019-03-28T14:51:53.956Z,11.6
2019-03-28T14:53:56.084Z,10.3
2019-03-28T14:55:57.999Z,10.3
2019-03-28T14:57:59.402Z,9.9
2019-03-28T15:00:00.833Z,10.8
2019-03-28T15:02:02.275Z,13
2019-03-28T15:04:03.747Z,11
2019-03-28T15:06:05.151Z,13.5
2019-03-28T15:08:06.593Z,12.3
2019-03-28T15:10:07.974Z,12
2019-03-28T15:12:09.362Z,11.8
2019-03-28T15:14:10.799Z,11.3
2019-03-28T15:16:12.195Z,10.4
2019-03-28T15:18:13.573Z,10.7
2019-03-28T15:20:15.016Z,10.7
2019-03-28T15:22:16.487Z,11.2
2019-03-28T15:24:17.917Z,11.7
2019-03-28T15:26:19.304Z,10.4
2019-03-28T15:28:20.640Z,12.3
2019-03-28T15:30:22.024Z,17.1
2019-03-28T15:32:23.449Z,25.1
2019-03-28T15:34:24.893Z,12.4
2019-03-28T15:36:27.482Z,12.4
2019-03-28T15:38:31.595Z,17.9
2019-03-28T15:40:40.089Z,12.9
2019-03-28T15:42:41.424Z,11.5
2019-03-28T15:44:42.856Z,10.8
2019-03-28T15:46:44.219Z,10.4
2019-03-28T15:48:45.563Z,10.3
2019-03-28T15:50:46.925Z,9.4
2019-03-28T15:52:48.364Z,10.9
2019-03-28T15:54:49.735Z,9.6
2019-03-28T15:56:51.172Z,10.6
2019-03-28T15:58:52.611Z,9.5
2019-03-28T16:00:54.021Z,9
2019-03-28T16:02:55.453Z,8.8
2019-03-28T16:04:56.899Z,9.3
2019-03-28T16:06:58.232Z,7.9
2019-03-28T16:08:59.617Z,8.7
2019-03-28T16:11:01.056Z,9.3
2019-03-28T16:13:02.608Z,7.3
2019-03-28T16:15:04.040Z,8.4
2019-03-28T16:17:05.468Z,8
2019-03-28T16:19:06.918Z,7.7
2019-03-28T16:21:08.316Z,7
2019-03-28T16:23:09.658Z,7.4
2019-03-28T16:25:11.097Z,8.3
2019-03-28T16:27:12.533Z,7.6
2019-03-28T16:29:13.875Z,6.8
2019-03-28T16:31:15.320Z,7.4
2019-03-28T16:33:16.675Z,7.7
2019-03-28T16:35:21.449Z,7.3
2019-03-28T16:37:22.856Z,7.3
2019-03-28T16:39:24.316Z,7.3
2019-03-28T16:41:25.744Z,7
2019-03-28T16:43:27.199Z,8.1
2019-03-28T16:45:28.622Z,11.2
2019-03-28T16:47:29.971Z,11.1
2019-03-28T16:49:31.328Z,9.3
2019-03-28T16:51:32.793Z,9.4
2019-03-28T16:53:34.222Z,9
2019-03-28T16:55:35.630Z,33.8
2019-03-28T16:57:37.068Z,43.4
2019-03-28T16:59:38.514Z,16.3
2019-03-28T17:01:39.951Z,17.2
2019-03-28T17:03:41.389Z,14.2
2019-03-28T17:05:42.826Z,12
2019-03-28T17:07:44.180Z,9.8
2019-03-28T17:09:45.619Z,7.7
2019-03-28T17:11:47.035Z,6.7
2019-03-28T17:13:48.456Z,7.5
2019-03-28T17:15:51.379Z,7.3
2019-03-28T17:17:52.826Z,7.8
2019-03-28T17:19:54.166Z,7.6
2019-03-28T17:21:55.506Z,7.2
2019-03-28T17:23:56.896Z,6.5
2019-03-28T17:25:58.238Z,6.9
2019-03-28T17:27:59.742Z,6.5
2019-03-28T17:30:01.095Z,6.3
2019-03-28T17:32:02.542Z,6.4
2019-03-28T17:34:04.020Z,7.2
2019-03-28T17:36:05.327Z,6.1
2019-03-28T17:38:06.757Z,5.8
2019-03-28T17:40:08.206Z,6.4
2019-03-28T17:42:09.642Z,6.1
2019-03-28T17:44:14.778Z,7.4
2019-03-28T17:46:16.217Z,6.6
2019-03-28T17:48:17.573Z,6.8
2019-03-28T17:50:19.007Z,7.3
2019-03-28T17:52:20.434Z,6.8
2019-03-28T17:54:21.778Z,7.1
2019-03-28T17:56:23.215Z,6.2
2019-03-28T17:58:24.615Z,6.6
2019-03-28T18:00:28.352Z,6.9
2019-03-28T18:02:29.792Z,7.2
2019-03-28T18:04:31.247Z,7.5
2019-03-28T18:06:32.750Z,6.5
2019-03-28T18:08:34.116Z,6.5
2019-03-28T18:10:35.537Z,7.5
2019-03-28T18:12:36.911Z,6.3
2019-03-28T18:14:38.302Z,6.4
2019-03-28T18:16:39.671Z,8.6
2019-03-28T18:18:41.104Z,8.2
2019-03-28T18:20:42.551Z,5.8
2019-03-28T18:22:43.973Z,7.7
2019-03-28T18:24:45.322Z,9.9
2019-03-28T18:26:46.757Z,7.4
2019-03-28T18:28:48.154Z,7.5
2019-03-28T18:30:49.532Z,7.9
2019-03-28T18:32:51.046Z,7.3
2019-03-28T18:35:06.320Z,6.5
2019-03-28T18:37:09.034Z,7.6
2019-03-28T18:39:10.398Z,7.6
2019-03-28T18:41:12.762Z,7.2
2019-03-28T18:43:14.318Z,7
2019-03-28T18:45:15.590Z,7.2
2019-03-28T18:47:18.142Z,7.1
2019-03-28T18:49:19.424Z,7.5
2019-03-28T18:51:20.761Z,7.4
2019-03-28T18:53:22.209Z,7.8
2019-03-28T18:55:23.539Z,6.4
2019-03-28T18:57:24.984Z,6.5
2019-03-28T18:59:26.462Z,5.4
2019-03-28T19:01:27.865Z,6
2019-03-28T19:03:29.293Z,6.3
2019-03-28T19:05:30.736Z,6.5
2019-03-28T19:07:32.099Z,8.4
2019-03-28T19:09:33.534Z,8
2019-03-28T19:11:34.985Z,7.4
2019-03-28T19:13:36.477Z,7.5
2019-03-28T19:15:37.799Z,6.9
2019-03-28T19:17:39.232Z,8.3
2019-03-28T19:19:40.601Z,8.1
2019-03-28T19:21:41.978Z,7
2019-03-28T19:23:43.328Z,8.4
2019-03-28T19:25:47.302Z,8.4
2019-03-28T19:27:48.853Z,7
2019-03-28T19:29:50.271Z,7.8
2019-03-28T19:31:51.633Z,7.6
2019-03-28T19:33:53.078Z,6.2
2019-03-28T19:35:54.514Z,9.5
2019-03-28T19:37:55.940Z,10.3
2019-03-28T19:39:57.336Z,8.1
2019-03-28T19:41:58.685Z,8.1
2019-03-28T19:44:00.060Z,9.9
2019-03-28T19:46:01.439Z,9
2019-03-28T19:48:02.828Z,8
2019-03-28T19:50:04.210Z,8.3
2019-03-28T19:52:05.673Z,9.6
2019-03-28T19:54:07.084Z,10.2
2019-03-28T19:56:08.532Z,9.8
2019-03-28T19:58:13.825Z,12.4
2019-03-28T20:00:15.395Z,8.7
2019-03-28T20:02:16.823Z,12.4
2019-03-28T20:04:18.240Z,12.5
2019-03-28T20:06:23.007Z,13
2019-03-28T20:08:26.554Z,14.1
2019-03-28T20:10:27.916Z,11.7
2019-03-28T20:12:29.368Z,10.8
2019-03-28T20:14:30.703Z,11.1
2019-03-28T20:16:32.139Z,9.4
2019-03-28T20:18:33.529Z,10.2
2019-03-28T20:20:34.782Z,10.1
2019-03-28T20:22:36.220Z,9.4
2019-03-28T20:24:37.567Z,11
2019-03-28T20:26:38.952Z,12.5
2019-03-28T20:28:40.396Z,15.8
2019-03-28T20:30:41.844Z,11.5
2019-03-28T20:32:43.336Z,10.5
2019-03-28T20:34:44.608Z,11.1
2019-03-28T20:36:46.027Z,9.3
2019-03-28T20:39:03.193Z,9.8
2019-03-28T20:41:05.330Z,9.6
2019-03-28T20:43:08.272Z,8.7
2019-03-28T20:45:11.169Z,8.2
2019-03-28T20:47:13.401Z,13.1
2019-03-28T20:49:15.072Z,12.7
2019-03-28T20:51:16.483Z,11
2019-03-28T20:53:17.919Z,8
2019-03-28T20:55:19.296Z,8.6
2019-03-28T20:57:20.725Z,8.7
2019-03-28T20:59:22.130Z,12
2019-03-28T21:01:23.562Z,6.9
2019-03-28T21:03:24.834Z,8.4
2019-03-28T21:05:26.207Z,7.9
2019-03-28T21:07:27.616Z,7.1
2019-03-28T21:09:29.043Z,7.3
2019-03-28T21:11:30.397Z,8
2019-03-28T21:13:31.813Z,8.7
2019-03-28T21:15:33.247Z,8.3
2019-03-28T21:17:34.703Z,10.5
2019-03-28T21:19:36.115Z,9.4
2019-03-28T21:21:37.550Z,7.4
2019-03-28T21:23:39.101Z,9
2019-03-28T21:25:40.489Z,14
2019-03-28T21:27:42.004Z,11.7
2019-03-28T21:29:49.590Z,10.7
2019-03-28T21:31:52.339Z,9.9
2019-03-28T21:33:55.206Z,8.3
2019-03-28T21:35:56.609Z,7.3
2019-03-28T21:37:58.013Z,7.6
2019-03-28T21:39:59.394Z,7.1
2019-03-28T21:42:00.775Z,7.2
2019-03-28T21:44:02.148Z,7.7
2019-03-28T21:46:03.427Z,7.9
2019-03-28T21:48:04.858Z,8.7
2019-03-28T21:50:06.300Z,7.3
2019-03-28T21:52:07.888Z,7.3
2019-03-28T21:54:09.286Z,6.7
2019-03-28T21:56:14.514Z,6.6
2019-03-28T21:58:15.900Z,6.6
2019-03-28T22:00:17.238Z,6.8
2019-03-28T22:02:18.599Z,7.8
2019-03-28T22:04:19.983Z,7
2019-03-28T22:06:21.440Z,7.5
2019-03-28T22:08:22.846Z,9.9
2019-03-28T22:10:24.274Z,10.4
2019-03-28T22:12:25.699Z,9.8
2019-03-28T22:14:27.032Z,8.6
2019-03-28T22:16:28.369Z,8.3
2019-03-28T22:18:29.637Z,8.6
2019-03-28T22:20:31.015Z,7.7
2019-03-28T22:22:32.451Z,8.7
2019-03-28T22:24:33.789Z,8.7
2019-03-28T22:26:35.184Z,8.6
2019-03-28T22:28:38.211Z,9.9
2019-03-28T22:30:39.641Z,9.3
2019-03-28T22:32:40.974Z,9.7
2019-03-28T22:34:42.222Z,7.6
2019-03-28T22:36:59.271Z,9.2
2019-03-28T22:39:00.908Z,8.8
2019-03-28T22:41:02.274Z,8.7
2019-03-28T22:43:03.704Z,8.7
2019-03-28T22:45:05.161Z,8.2
2019-03-28T22:47:06.577Z,8.2
2019-03-28T22:49:08.004Z,8.3
2019-03-28T22:51:09.401Z,7.7
2019-03-28T22:53:10.819Z,8.7
2019-03-28T22:55:12.204Z,7.8
2019-03-28T22:57:13.548Z,8.9
2019-03-28T22:59:14.906Z,8
2019-03-28T23:01:16.290Z,7.5
2019-03-28T23:03:17.689Z,6.8
2019-03-28T23:05:18.958Z,7
2019-03-28T23:07:20.383Z,6.8
2019-03-28T23:09:21.663Z,7.7
2019-03-28T23:11:23.097Z,8.1
2019-03-28T23:13:24.531Z,6.5
2019-03-28T23:15:25.897Z,7.8
2019-03-28T23:17:27.298Z,6.5
2019-03-28T23:19:28.673Z,6.7
2019-03-28T23:21:30.147Z,5.4
2019-03-28T23:23:31.504Z,5.7
2019-03-28T23:25:32.855Z,5.8
2019-03-28T23:27:34.263Z,5.6
2019-03-28T23:29:36.848Z,5.4
2019-03-28T23:31:38.231Z,5.6
2019-03-28T23:33:39.666Z,5.7
2019-03-28T23:35:41.257Z,6.5
2019-03-28T23:37:42.606Z,6.3
2019-03-28T23:39:43.952Z,5.6
2019-03-28T23:41:45.288Z,6.8
2019-03-28T23:43:46.550Z,6.5
2019-03-28T23:45:47.895Z,7.4
2019-03-28T23:47:49.226Z,5.3
2019-03-28T23:49:50.559Z,6.8
2019-03-28T23:51:51.998Z,6.5
2019-03-28T23:53:53.440Z,6.6
2019-03-28T23:55:54.870Z,6.7
2019-03-28T23:57:56.122Z,6.4
2019-03-28T23:59:57.560Z,6.5
